Time;durP1;ratioP1;P1;durP2;ratioP2;P2;SDS_P1;SDS_P2;PMS_P1;PMS_P2;Temp;Humidity;BMP_temperature;BMP_pressure;BME280_temperature;BME280_humidity;BME280_pressure;Samples;Min_cycle;Max_cycle;Signal;HPM_P1;HPM_P2
2022/11/03 00:02:17;;;;;;;14.32;3.15;;;13.70;99.90;;;;;;5054411;28;20044;-62
2022/11/03 00:04:44;;;;;;;11.75;3.40;;;13.70;99.90;;;;;;5053508;28;20121;-61
2022/11/03 00:07:11;;;;;;;11.23;2.67;;;13.60;99.90;;;;;;5053913;28;20037;-61
2022/11/03 00:09:37;;;;;;;7.57;2.30;;;13.60;99.90;;;;;;5054221;28;20047;-63
2022/11/03 00:12:04;;;;;;;9.63;2.58;;;13.60;99.90;;;;;;5052973;28;20435;-62
2022/11/03 00:14:31;;;;;;;11.43;2.63;;;13.60;99.90;;;;;;5050645;28;20041;-62
2022/11/03 00:16:58;;;;;;;9.70;2.70;;;13.50;99.90;;;;;;5036710;28;21068;-61
2022/11/03 00:19:24;;;;;;;12.85;2.40;;;13.50;99.90;;;;;;5051972;28;20080;-61
2022/11/03 00:21:51;;;;;;;8.10;2.13;;;13.50;99.90;;;;;;5052465;28;20073;-59
2022/11/03 00:24:18;;;;;;;7.00;1.80;;;13.50;99.90;;;;;;5053108;28;20484;-61
2022/11/03 00:26:45;;;;;;;11.15;2.33;;;13.50;99.90;;;;;;5050513;28;20147;-61
2022/11/03 00:29:12;;;;;;;9.50;2.03;;;13.40;99.90;;;;;;5037533;28;20124;-61
2022/11/03 00:31:39;;;;;;;8.88;1.73;;;13.40;99.90;;;;;;5049709;28;20049;-60
2022/11/03 00:34:06;;;;;;;7.65;1.60;;;13.40;99.90;;;;;;5053484;28;20083;-60
2022/11/03 00:36:32;;;;;;;7.25;1.90;;;13.40;99.90;;;;;;5051747;28;20041;-61
2022/11/03 00:38:59;;;;;;;6.63;1.73;;;13.30;99.90;;;;;;5040084;28;20095;-62
2022/11/03 00:41:26;;;;;;;7.85;1.90;;;13.30;99.90;;;;;;5033948;28;20435;-61
2022/11/03 00:43:53;;;;;;;5.75;1.65;;;13.30;99.90;;;;;;5033973;28;20041;-61
2022/11/03 00:46:19;;;;;;;8.63;1.70;;;13.20;99.90;;;;;;5034112;28;20136;-61
2022/11/03 00:48:46;;;;;;;11.57;2.60;;;13.20;99.90;;;;;;5034505;28;20121;-61
2022/11/03 00:51:13;;;;;;;6.78;1.67;;;13.10;99.90;;;;;;5033654;28;20072;-61
2022/11/03 00:53:39;;;;;;;7.15;1.60;;;13.10;99.90;;;;;;5033752;28;20049;-62
2022/11/03 00:56:06;;;;;;;6.22;1.52;;;13.10;99.90;;;;;;5052930;28;20074;-61
2022/11/03 00:58:33;;;;;;;3.80;1.00;;;13.00;99.90;;;;;;5053427;28;20432;-61
2022/11/03 01:01:00;;;;;;;5.90;1.73;;;13.00;99.90;;;;;;5053286;28;20076;-61
2022/11/03 01:03:26;;;;;;;5.63;1.40;;;13.00;99.90;;;;;;5053478;28;20048;-62
2022/11/03 01:08:39;;;;;;;6.70;1.38;;;13.00;99.90;;;;;;5057502;28;20044;-61
2022/11/03 01:13:51;;;;;;;4.97;1.15;;;13.00;99.90;;;;;;5057318;28;20037;-60
2022/11/03 01:16:18;;;;;;;4.72;1.00;;;13.00;99.90;;;;;;5056486;28;20171;-60
2022/11/03 01:18:44;;;;;;;4.10;1.13;;;12.90;99.90;;;;;;5057455;28;20438;-61
2022/11/03 01:21:11;;;;;;;2.53;0.80;;;12.90;99.90;;;;;;5057500;28;20091;-67
2022/11/03 01:23:38;;;;;;;4.03;0.95;;;12.90;99.90;;;;;;5056304;28;20041;-62
2022/11/03 01:26:05;;;;;;;2.47;0.88;;;12.90;99.90;;;;;;5056928;28;20071;-62
2022/11/03 01:28:31;;;;;;;3.08;0.80;;;12.90;99.90;;;;;;5056862;28;20073;-61
2022/11/03 01:30:58;;;;;;;3.63;1.02;;;12.90;99.90;;;;;;5051159;28;20435;-62
2022/11/03 01:33:25;;;;;;;4.53;1.10;;;12.90;99.90;;;;;;5036811;28;20124;-62
2022/11/03 01:35:51;;;;;;;3.97;0.82;;;12.90;99.90;;;;;;5037368;28;20128;-62
2022/11/03 01:38:18;;;;;;;1.83;0.70;;;12.90;99.90;;;;;;5036873;28;20077;-62
2022/11/03 01:40:45;;;;;;;2.92;0.98;;;12.90;99.90;;;;;;5044925;28;20037;-61
2022/11/03 01:43:11;;;;;;;3.38;0.90;;;12.90;99.90;;;;;;5055851;28;20451;-61
2022/11/03 01:45:38;;;;;;;3.00;0.82;;;12.90;99.90;;;;;;5054820;28;20094;-61
2022/11/03 01:48:05;;;;;;;4.18;0.95;;;12.90;99.90;;;;;;5040490;28;20041;-62
2022/11/03 01:50:31;;;;;;;2.13;0.68;;;12.90;99.90;;;;;;5048196;28;20125;-61
2022/11/03 01:52:58;;;;;;;3.50;0.70;;;12.90;99.90;;;;;;5036850;28;20044;-60
2022/11/03 01:55:25;;;;;;;2.83;0.93;;;12.90;99.90;;;;;;5051520;28;20049;-61
2022/11/03 01:57:52;;;;;;;4.88;0.85;;;12.90;99.90;;;;;;5044548;28;20562;-62
2022/11/03 02:00:18;;;;;;;3.22;0.70;;;12.90;99.90;;;;;;5051955;28;20134;-62
2022/11/03 02:02:45;;;;;;;5.93;1.15;;;12.90;99.90;;;;;;5036772;28;20041;-61
2022/11/03 02:05:16;;;;;;;2.60;0.73;;;12.90;99.90;;;;;;5036713;28;20124;-61
2022/11/03 02:07:43;;;;;;;2.53;0.85;;;12.90;99.90;;;;;;5052836;28;20464;-61
2022/11/03 02:10:10;;;;;;;2.55;0.80;;;12.90;99.90;;;;;;5056539;28;20037;-60
2022/11/03 02:12:36;;;;;;;2.53;0.82;;;12.90;99.90;;;;;;5056229;28;20123;-61
2022/11/03 02:15:03;;;;;;;4.07;1.02;;;12.90;99.90;;;;;;5042140;28;20076;-60
2022/11/03 02:17:30;;;;;;;3.28;0.80;;;12.90;99.90;;;;;;5036245;28;20053;-61
2022/11/03 02:19:56;;;;;;;3.75;0.70;;;13.00;99.90;;;;;;5036332;28;20476;-60
2022/11/03 02:22:23;;;;;;;3.17;0.98;;;12.90;99.90;;;;;;5035926;28;20121;-61
2022/11/03 02:24:50;;;;;;;2.78;0.98;;;13.00;99.90;;;;;;5036305;28;20528;-60
2022/11/03 02:27:19;;;;;;;4.32;1.02;;;12.90;99.90;;;;;;5042504;28;20038;-62
2022/11/03 02:29:46;;;;;;;5.07;1.48;;;12.90;99.90;;;;;;5038790;28;20037;-60
2022/11/03 02:32:13;;;;;;;4.88;1.27;;;12.90;99.90;;;;;;5037431;28;20096;-62
2022/11/03 02:34:40;;;;;;;6.43;1.30;;;12.90;99.90;;;;;;5044405;28;20037;-61
2022/11/03 02:37:06;;;;;;;3.90;0.90;;;12.90;99.90;;;;;;5042056;28;20100;-62
2022/11/03 02:39:33;;;;;;;6.85;1.20;;;12.80;99.90;;;;;;5036253;28;20080;-62
2022/11/03 02:42:00;;;;;;;5.72;1.10;;;12.90;99.90;;;;;;5055565;28;20037;-61
2022/11/03 02:44:27;;;;;;;3.97;1.00;;;12.80;99.90;;;;;;5045180;28;20096;-62
2022/11/03 02:46:53;;;;;;;4.80;0.90;;;12.80;99.90;;;;;;5039663;28;20048;-62
2022/11/03 02:49:20;;;;;;;4.53;1.15;;;12.80;99.90;;;;;;5049619;28;20429;-60
2022/11/03 02:51:47;;;;;;;4.93;1.13;;;12.80;99.90;;;;;;5054295;28;20057;-61
2022/11/03 02:54:13;;;;;;;5.53;1.08;;;12.90;99.90;;;;;;5054538;28;20157;-61
2022/11/03 02:56:40;;;;;;;5.35;1.13;;;12.90;99.90;;;;;;5053564;28;20049;-62
2022/11/03 02:59:07;;;;;;;6.10;1.27;;;12.90;99.90;;;;;;5041107;28;20057;-62
2022/11/03 03:01:38;;;;;;;7.93;1.70;;;12.90;99.90;;;;;;5051487;28;20044;-61
2022/11/03 03:04:05;;;;;;;8.13;1.75;;;13.00;99.90;;;;;;5055294;28;20387;-61
2022/11/03 03:06:32;;;;;;;9.32;1.88;;;12.90;99.90;;;;;;5050676;28;20041;-62
2022/11/03 03:08:59;;;;;;;9.90;2.20;;;12.90;99.90;;;;;;5053306;28;20094;-61
2022/11/03 03:11:38;;;;;;;11.95;2.30;;;12.90;99.90;;;;;;5050738;28;20045;-62
2022/11/03 03:14:05;;;;;;;8.27;1.90;;;13.00;99.90;;;;;;5052500;28;20124;-61
2022/11/03 03:16:32;;;;;;;9.60;1.90;;;13.00;99.90;;;;;;5053593;28;20061;-61
2022/11/03 03:18:58;;;;;;;10.57;2.00;;;13.00;99.90;;;;;;5054172;28;20048;-61
2022/11/03 03:21:25;;;;;;;9.98;1.83;;;13.00;99.90;;;;;;5053209;28;20039;-60
2022/11/03 03:23:52;;;;;;;12.90;2.63;;;13.00;99.90;;;;;;5054265;28;20064;-61
2022/11/03 03:26:19;;;;;;;9.25;2.05;;;13.00;99.90;;;;;;5053156;28;20112;-60
2022/11/03 03:28:45;;;;;;;14.27;2.40;;;13.00;99.90;;;;;;5052234;28;20071;-63
2022/11/03 03:31:12;;;;;;;13.40;2.65;;;13.00;99.90;;;;;;5053915;28;20087;-61
2022/11/03 03:33:39;;;;;;;18.63;3.05;;;13.00;99.90;;;;;;5050414;28;20120;-61
2022/11/03 03:36:12;;;;;;;12.80;2.83;;;13.00;99.90;;;;;;5044078;28;20115;-61
2022/11/03 03:38:38;;;;;;;13.75;2.50;;;13.00;99.90;;;;;;5045024;28;20052;-60
2022/11/03 03:41:05;;;;;;;14.45;3.20;;;13.10;99.90;;;;;;5035984;28;20048;-61
2022/11/03 03:43:36;;;;;;;11.85;2.70;;;13.00;99.90;;;;;;5039746;28;20037;-61
2022/11/03 03:46:03;;;;;;;12.25;2.13;;;13.10;99.90;;;;;;5049268;28;20038;-61
2022/11/03 03:48:29;;;;;;;9.77;2.75;;;13.00;99.90;;;;;;5044996;28;20111;-61
2022/11/03 03:50:56;;;;;;;9.25;2.17;;;13.10;99.90;;;;;;5047100;28;20135;-61
2022/11/03 03:53:23;;;;;;;10.07;2.65;;;13.00;99.90;;;;;;5052420;28;20158;-61
2022/11/03 03:55:49;;;;;;;11.00;1.80;;;13.10;99.90;;;;;;5053211;28;20080;-62
2022/11/03 03:58:16;;;;;;;9.10;2.22;;;13.10;99.90;;;;;;5036522;28;20099;-61
2022/11/03 04:00:43;;;;;;;10.25;2.22;;;13.10;99.90;;;;;;5053237;28;20068;-60
2022/11/03 04:03:10;;;;;;;9.63;2.00;;;13.10;99.90;;;;;;5051697;28;20039;-62
2022/11/03 04:05:36;;;;;;;7.70;2.05;;;13.10;99.90;;;;;;5053221;28;20041;-62
2022/11/03 04:08:03;;;;;;;13.50;3.08;;;13.10;99.90;;;;;;5053854;28;20452;-60
2022/11/03 04:10:30;;;;;;;6.88;1.73;;;13.10;99.90;;;;;;5049796;28;20047;-61
2022/11/03 04:24:12;;;;;;;8.63;1.60;;;13.20;99.90;;;;;;5053841;28;20464;-61
2022/11/03 04:26:39;;;;;;;7.13;1.75;;;13.20;99.90;;;;;;5050221;28;20128;-62
2022/11/03 04:29:05;;;;;;;10.77;2.67;;;13.20;99.90;;;;;;5051902;28;20067;-60
2022/11/03 04:31:32;;;;;;;8.60;1.80;;;13.20;99.90;;;;;;5052795;28;20559;-61
2022/11/03 04:33:59;;;;;;;8.68;1.52;;;13.20;99.90;;;;;;5042355;28;20065;-61
2022/11/03 04:36:26;;;;;;;7.07;1.33;;;13.30;99.90;;;;;;5046555;28;20073;-60
2022/11/03 04:38:52;;;;;;;7.28;1.50;;;13.30;99.90;;;;;;5051034;28;20087;-60
2022/11/03 04:41:19;;;;;;;7.70;1.75;;;13.30;99.90;;;;;;5040605;28;20103;-61
2022/11/03 04:43:46;;;;;;;8.10;1.65;;;13.30;99.90;;;;;;5052599;28;20385;-63
2022/11/03 04:46:13;;;;;;;8.10;1.55;;;13.30;99.90;;;;;;5042830;28;20088;-62
2022/11/03 04:48:39;;;;;;;7.05;1.48;;;13.30;99.90;;;;;;5042400;28;20049;-60
2022/11/03 04:51:06;;;;;;;7.22;1.42;;;13.30;99.90;;;;;;5034847;28;20088;-60
2022/11/03 04:53:33;;;;;;;7.82;1.52;;;13.30;99.90;;;;;;5042971;28;20050;-62
2022/11/03 04:55:59;;;;;;;6.88;1.55;;;13.30;99.90;;;;;;5036840;28;20773;-62
2022/11/03 04:58:33;;;;;;;5.82;1.70;;;13.30;99.90;;;;;;5051001;28;20044;-61
2022/11/03 05:01:00;;;;;;;6.43;1.60;;;13.30;99.90;;;;;;5050841;28;20560;-61
2022/11/03 05:03:27;;;;;;;7.75;1.20;;;13.30;99.90;;;;;;5041683;28;20040;-61
2022/11/03 05:05:53;;;;;;;7.50;1.60;;;13.30;99.90;;;;;;5042344;28;20439;-61
2022/11/03 05:08:20;;;;;;;7.65;1.85;;;13.30;99.90;;;;;;5051415;28;20476;-60
2022/11/03 05:10:47;;;;;;;6.22;1.17;;;13.30;99.90;;;;;;5035029;28;20176;-61
2022/11/03 05:13:13;;;;;;;5.65;1.27;;;13.30;99.90;;;;;;5038005;28;20459;-61
2022/11/03 05:15:40;;;;;;;5.85;1.70;;;13.30;99.90;;;;;;5052437;28;20120;-61
2022/11/03 05:18:07;;;;;;;6.80;1.33;;;13.30;99.90;;;;;;5053242;28;20049;-61
2022/11/03 05:20:33;;;;;;;7.30;1.30;;;13.40;99.90;;;;;;5051509;28;20476;-61
2022/11/03 05:23:02;;;;;;;9.95;1.60;;;13.30;99.90;;;;;;5042711;28;20463;-61
2022/11/03 05:25:29;;;;;;;9.35;1.40;;;13.30;99.90;;;;;;5051693;28;20045;-60
2022/11/03 05:27:55;;;;;;;7.68;1.70;;;13.40;99.90;;;;;;5036607;28;20548;-60
2022/11/03 05:30:22;;;;;;;7.43;1.50;;;13.40;99.90;;;;;;5051119;28;20064;-60
2022/11/03 05:32:49;;;;;;;8.38;1.48;;;13.40;99.90;;;;;;5051031;28;20191;-61
2022/11/03 05:35:15;;;;;;;6.20;1.48;;;13.40;99.90;;;;;;5049189;28;20108;-61
2022/11/03 05:37:42;;;;;;;7.00;1.40;;;13.40;99.90;;;;;;5040358;28;20065;-62
2022/11/03 05:40:09;;;;;;;7.57;1.25;;;13.40;99.90;;;;;;5051012;28;20558;-61
2022/11/03 05:42:35;;;;;;;10.77;1.50;;;13.40;99.90;;;;;;5041244;28;20125;-61
2022/11/03 05:45:02;;;;;;;12.43;1.92;;;13.40;99.90;;;;;;5032971;28;20427;-61
2022/11/03 05:47:29;;;;;;;8.25;1.65;;;13.40;99.90;;;;;;5051035;28;20045;-62
2022/11/03 05:49:56;;;;;;;7.65;1.73;;;13.50;99.90;;;;;;5048863;28;20069;-62
2022/11/03 05:52:22;;;;;;;9.20;1.63;;;13.40;99.90;;;;;;5048665;28;20080;-61
2022/11/03 05:54:49;;;;;;;10.93;2.50;;;13.40;99.90;;;;;;5047657;28;20052;-61
2022/11/03 05:57:16;;;;;;;12.32;2.17;;;13.50;99.90;;;;;;5041130;28;20071;-60
2022/11/03 05:59:43;;;;;;;11.95;2.13;;;13.50;99.90;;;;;;5035460;28;20054;-61
2022/11/03 06:02:09;;;;;;;9.30;2.08;;;13.50;99.90;;;;;;5046511;28;20067;-62
2022/11/03 06:04:36;;;;;;;11.45;2.30;;;13.50;99.90;;;;;;5038159;28;20121;-62
2022/11/03 06:07:03;;;;;;;16.35;2.53;;;13.50;99.90;;;;;;5045034;28;20045;-62
2022/11/03 06:09:30;;;;;;;12.88;2.38;;;13.50;99.90;;;;;;5052538;28;20124;-60
2022/11/03 06:11:56;;;;;;;13.43;3.10;;;13.50;99.90;;;;;;5047652;28;20094;-60
2022/11/03 06:14:23;;;;;;;19.67;3.38;;;13.60;99.90;;;;;;5054491;28;20068;-61
2022/11/03 06:16:50;;;;;;;14.38;2.80;;;13.60;99.90;;;;;;5053713;28;20510;-62
2022/11/03 06:19:18;;;;;;;15.35;2.80;;;13.50;99.90;;;;;;5050513;28;20056;-60
2022/11/03 06:21:45;;;;;;;11.85;2.60;;;13.50;99.90;;;;;;5036934;28;20468;-60
2022/11/03 06:24:12;;;;;;;20.65;3.33;;;13.50;99.90;;;;;;5036211;28;20465;-61
2022/11/03 06:26:39;;;;;;;17.85;3.17;;;13.50;99.90;;;;;;5039209;28;20045;-61
2022/11/03 06:29:05;;;;;;;7.85;1.63;;;13.40;99.90;;;;;;5047415;28;20052;-61
2022/11/03 06:31:32;;;;;;;4.88;1.10;;;13.30;99.90;;;;;;5048393;28;20049;-61
2022/11/03 06:33:59;;;;;;;5.97;1.10;;;13.20;99.90;;;;;;5043022;28;20052;-61
2022/11/03 06:36:26;;;;;;;2.85;0.70;;;13.10;99.90;;;;;;5047519;28;20041;-60
2022/11/03 06:38:52;;;;;;;3.53;0.60;;;13.00;99.90;;;;;;5052354;28;20049;-61
2022/11/03 06:41:19;;;;;;;4.20;0.95;;;13.00;99.90;;;;;;5046571;28;20053;-61
2022/11/03 06:43:46;;;;;;;1.55;0.55;;;12.90;99.90;;;;;;5055072;28;20124;-61
2022/11/03 06:46:13;;;;;;;2.05;0.55;;;12.80;99.90;;;;;;5044577;28;20120;-60
2022/11/03 06:48:39;;;;;;;3.65;0.80;;;12.80;99.90;;;;;;5055652;28;20041;-60
2022/11/03 06:51:06;;;;;;;4.75;1.00;;;12.70;99.90;;;;;;5049247;28;20076;-61
2022/11/03 06:53:33;;;;;;;4.85;1.13;;;12.50;99.90;;;;;;5046291;28;20069;-61
2022/11/03 06:55:59;;;;;;;6.47;1.40;;;12.40;99.90;;;;;;5048682;28;20045;-59
2022/11/03 06:58:26;;;;;;;7.05;1.77;;;12.30;99.90;;;;;;5045865;28;20045;-62
2022/11/03 07:00:53;;;;;;;8.95;1.83;;;12.20;99.90;;;;;;5050845;28;20064;-61
2022/11/03 07:03:30;;;;;;;7.13;1.80;;;12.10;99.90;;;;;;5047952;28;20075;-61
2022/11/03 07:05:57;;;;;;;8.10;1.92;;;12.00;99.90;;;;;;5052418;28;20098;-60
2022/11/03 07:08:23;;;;;;;8.30;1.95;;;12.00;99.90;;;;;;5053712;28;20037;-61
2022/11/03 07:10:50;;;;;;;7.53;2.00;;;12.00;99.90;;;;;;5053476;28;20091;-61
2022/11/03 07:13:17;;;;;;;7.28;1.70;;;12.00;99.90;;;;;;5043495;28;20032;-60
2022/11/03 07:15:44;;;;;;;7.47;1.67;;;12.00;99.90;;;;;;5049436;28;20067;-60
2022/11/03 07:18:10;;;;;;;5.07;1.55;;;12.00;99.90;;;;;;5042778;28;20457;-60
2022/11/03 07:20:37;;;;;;;9.27;2.50;;;12.00;99.90;;;;;;5040131;28;20042;-61
2022/11/03 07:23:04;;;;;;;8.82;2.10;;;12.00;99.90;;;;;;5049783;28;20469;-60
2022/11/03 07:25:31;;;;;;;7.35;1.67;;;12.00;99.90;;;;;;5047139;28;20036;-60
2022/11/03 07:27:58;;;;;;;8.38;2.17;;;12.00;99.90;;;;;;5045319;28;20034;-61
2022/11/03 07:30:24;;;;;;;7.97;1.90;;;11.90;99.90;;;;;;5041425;28;20037;-60
2022/11/03 07:32:51;;;;;;;7.13;2.05;;;12.00;99.90;;;;;;5052434;28;20040;-61
2022/11/03 07:35:18;;;;;;;7.13;2.25;;;11.90;99.90;;;;;;5042315;28;20049;-61
2022/11/03 07:37:44;;;;;;;8.82;1.98;;;11.90;99.90;;;;;;5043421;28;20041;-60
2022/11/03 07:40:11;;;;;;;6.15;1.75;;;12.00;99.90;;;;;;5046272;28;20068;-60
2022/11/03 07:42:38;;;;;;;6.78;1.85;;;12.00;99.90;;;;;;5051655;28;20084;-59
2022/11/03 07:45:06;;;;;;;6.03;1.58;;;12.00;99.90;;;;;;5044021;28;20103;-60
2022/11/03 07:47:32;;;;;;;6.72;1.58;;;12.00;99.90;;;;;;5047819;28;20041;-59
2022/11/03 07:49:59;;;;;;;6.28;2.03;;;12.00;99.90;;;;;;5045806;28;20538;-60
2022/11/03 07:52:26;;;;;;;9.10;1.60;;;12.00;99.90;;;;;;5054331;28;20119;-60
2022/11/03 07:54:53;;;;;;;7.18;1.90;;;12.00;99.90;;;;;;5049940;28;20120;-60
2022/11/03 07:57:20;;;;;;;5.45;1.30;;;11.90;99.90;;;;;;5034575;28;20058;-60
2022/11/03 07:59:47;;;;;;;7.82;1.55;;;11.90;99.90;;;;;;5046969;28;20133;-60
2022/11/03 08:02:13;;;;;;;12.57;2.33;;;11.90;99.90;;;;;;5043001;28;20115;-59
2022/11/03 08:04:40;;;;;;;9.25;1.80;;;11.90;99.90;;;;;;5036288;28;20116;-61
2022/11/03 08:07:07;;;;;;;13.07;2.28;;;11.90;99.90;;;;;;5045158;28;20115;-60
2022/11/03 08:09:34;;;;;;;6.07;1.75;;;11.90;99.90;;;;;;5040139;28;20399;-60
2022/11/03 08:12:00;;;;;;;6.03;1.75;;;11.90;99.90;;;;;;5048922;28;20124;-60
2022/11/03 08:14:27;;;;;;;7.45;1.77;;;11.90;99.90;;;;;;5043903;28;20088;-60
2022/11/03 08:16:54;;;;;;;6.05;1.63;;;11.80;99.90;;;;;;5051847;28;20069;-60
2022/11/03 08:19:21;;;;;;;4.68;1.67;;;11.90;99.90;;;;;;5043699;28;20046;-60
2022/11/03 08:21:47;;;;;;;6.45;1.65;;;11.90;99.90;;;;;;5050617;28;20041;-60
2022/11/03 08:24:14;;;;;;;5.45;1.77;;;11.90;99.90;;;;;;5037943;28;20042;-60
2022/11/03 08:26:41;;;;;;;6.38;1.67;;;11.90;99.90;;;;;;5051816;28;20056;-60
2022/11/03 08:29:08;;;;;;;4.05;1.75;;;11.90;99.90;;;;;;5051289;28;20037;-60
2022/11/03 08:31:35;;;;;;;5.85;2.05;;;11.80;99.90;;;;;;5048517;28;20052;-60
2022/11/03 08:34:02;;;;;;;5.95;1.48;;;11.80;99.90;;;;;;5038118;28;20083;-60
2022/11/03 08:36:29;;;;;;;2.88;1.42;;;11.90;99.90;;;;;;5040057;28;20053;-60
2022/11/03 08:38:55;;;;;;;4.97;1.52;;;11.90;99.90;;;;;;5034066;28;20081;-60
2022/11/03 08:41:22;;;;;;;5.05;1.55;;;11.90;99.90;;;;;;5033792;28;20045;-60
2022/11/03 08:43:49;;;;;;;4.50;1.30;;;11.90;99.90;;;;;;5033736;28;20120;-60
2022/11/03 08:46:16;;;;;;;5.40;1.40;;;11.90;99.90;;;;;;5033546;28;20100;-60
2022/11/03 08:48:44;;;;;;;4.93;1.30;;;11.90;99.90;;;;;;5033618;28;20120;-59
2022/11/03 08:51:12;;;;;;;5.93;1.35;;;11.90;99.90;;;;;;5033287;28;20431;-60
2022/11/03 08:53:41;;;;;;;6.32;1.58;;;11.90;99.90;;;;;;5033584;28;20548;-60
2022/11/03 08:56:08;;;;;;;5.68;1.45;;;11.90;99.90;;;;;;5033842;28;20045;-60
2022/11/03 08:58:39;;;;;;;5.50;1.50;;;11.90;99.90;;;;;;5031917;28;20064;-59
2022/11/03 09:01:06;;;;;;;7.88;1.45;;;11.90;99.90;;;;;;5033053;28;20051;-60
2022/11/03 09:03:33;;;;;;;4.38;1.92;;;11.90;99.90;;;;;;5033096;28;20128;-60
2022/11/03 09:06:00;;;;;;;13.48;2.45;;;11.90;99.90;;;;;;5033693;28;20087;-60
2022/11/03 09:08:27;;;;;;;5.90;1.30;;;11.90;99.90;;;;;;5033301;28;20129;-60
2022/11/03 09:11:13;;;;;;;7.07;1.80;;;11.90;99.90;;;;;;5033325;28;20055;-60
2022/11/03 09:13:40;;;;;;;5.45;1.48;;;11.90;99.90;;;;;;5033212;28;20076;-60
2022/11/03 09:16:07;;;;;;;6.40;1.45;;;12.00;99.90;;;;;;5032780;28;20053;-60
2022/11/03 09:18:33;;;;;;;6.43;1.38;;;12.00;99.90;;;;;;5033602;28;20485;-60
2022/11/03 09:21:00;;;;;;;5.25;1.40;;;12.00;99.90;;;;;;5032957;28;20099;-60
2022/11/03 09:23:27;;;;;;;5.18;1.60;;;12.00;99.90;;;;;;5032913;28;20099;-60
2022/11/03 09:25:54;;;;;;;5.43;1.88;;;12.00;99.90;;;;;;5034941;28;20037;-60
2022/11/03 09:28:20;;;;;;;16.33;2.10;;;12.00;99.90;;;;;;5036950;28;20113;-60
2022/11/03 09:30:47;;;;;;;7.18;1.80;;;12.00;99.90;;;;;;5037367;28;20061;-60
2022/11/03 09:33:14;;;;;;;5.55;1.50;;;11.90;99.90;;;;;;5037332;28;20052;-60
2022/11/03 09:35:40;;;;;;;4.60;1.35;;;12.00;99.90;;;;;;5036700;28;20061;-60
2022/11/03 09:38:07;;;;;;;7.13;1.33;;;12.00;99.90;;;;;;5035880;28;20045;-60
2022/11/03 09:40:34;;;;;;;4.55;1.40;;;11.90;99.90;;;;;;5035950;28;20473;-60
2022/11/03 09:43:01;;;;;;;3.50;1.17;;;11.90;99.90;;;;;;5036683;28;20038;-60
2022/11/03 09:45:28;;;;;;;4.25;1.40;;;11.90;99.90;;;;;;5036792;28;20041;-60
2022/11/03 09:47:55;;;;;;;3.45;1.25;;;11.90;99.90;;;;;;5037232;28;20033;-60
2022/11/03 09:50:22;;;;;;;9.50;1.75;;;11.90;99.90;;;;;;5036473;28;20034;-60
2022/11/03 09:52:51;;;;;;;20.58;13.07;;;11.90;99.90;;;;;;5036430;28;20156;-60
2022/11/03 09:55:17;;;;;;;6.10;1.75;;;11.90;99.90;;;;;;5036279;28;20133;-60
2022/11/03 09:57:44;;;;;;;4.00;1.45;;;11.80;99.90;;;;;;5036463;28;20479;-60
2022/11/03 10:00:11;;;;;;;6.55;1.75;;;11.90;99.90;;;;;;5036464;28;20041;-61
2022/11/03 10:02:42;;;;;;;4.55;1.63;;;11.90;99.90;;;;;;5036396;28;20124;-61
2022/11/03 10:05:08;;;;;;;6.70;1.95;;;11.80;99.90;;;;;;5036415;28;20124;-60
2022/11/03 10:07:37;;;;;;;5.63;1.48;;;11.80;99.90;;;;;;5036396;28;20071;-61
2022/11/03 10:10:03;;;;;;;7.25;1.33;;;11.90;99.90;;;;;;5036162;28;20041;-60
2022/11/03 10:12:30;;;;;;;7.82;1.58;;;11.90;99.90;;;;;;5036322;28;20050;-60
2022/11/03 10:14:57;;;;;;;6.90;1.70;;;11.90;99.90;;;;;;5035952;28;20069;-60
2022/11/03 10:17:23;;;;;;;46.70;22.40;;;11.90;99.90;;;;;;5035942;28;20111;-60
2022/11/03 10:19:50;;;;;;;11.98;2.67;;;11.90;99.90;;;;;;5036068;28;20068;-61
2022/11/03 10:22:17;;;;;;;8.32;1.88;;;11.80;99.90;;;;;;5036211;28;20068;-60
2022/11/03 10:24:43;;;;;;;6.75;1.70;;;11.90;99.90;;;;;;5039168;28;20131;-61
2022/11/03 10:27:10;;;;;;;6.28;1.80;;;11.90;99.90;;;;;;5055839;28;20141;-61
2022/11/03 10:29:37;;;;;;;5.18;1.92;;;11.90;99.90;;;;;;5055623;28;20485;-60
2022/11/03 10:32:06;;;;;;;19.35;2.22;;;11.90;99.90;;;;;;5055747;28;20072;-61
2022/11/03 10:34:33;;;;;;;7.88;1.70;;;11.90;99.90;;;;;;5055639;28;20045;-62
2022/11/03 10:37:00;;;;;;;7.00;1.70;;;11.90;99.90;;;;;;5055394;28;20151;-60
2022/11/03 10:39:27;;;;;;;6.53;1.33;;;12.00;99.90;;;;;;5055590;28;20033;-60
2022/11/03 10:41:53;;;;;;;5.60;1.55;;;12.00;99.90;;;;;;5054707;28;20056;-61
2022/11/03 10:44:20;;;;;;;5.97;1.25;;;11.90;99.90;;;;;;5055259;28;20083;-61
2022/11/03 10:46:48;;;;;;;5.22;1.50;;;12.00;99.90;;;;;;5055904;28;20447;-60
2022/11/03 10:49:18;;;;;;;6.15;1.63;;;11.90;99.90;;;;;;5054428;28;20037;-60
2022/11/03 10:51:45;;;;;;;6.82;1.80;;;12.00;99.90;;;;;;5055695;28;20033;-60
2022/11/03 10:54:11;;;;;;;5.35;1.65;;;12.00;99.90;;;;;;5055448;28;20044;-60
2022/11/03 10:56:38;;;;;;;7.45;2.25;;;12.00;99.90;;;;;;5054878;28;20045;-60
2022/11/03 10:59:05;;;;;;;4.18;1.27;;;12.00;99.90;;;;;;5055325;28;20048;-61
2022/11/03 11:01:32;;;;;;;4.60;1.40;;;12.10;99.90;;;;;;5055139;28;20076;-60
2022/11/03 11:03:59;;;;;;;8.00;1.83;;;12.10;99.90;;;;;;5055359;28;20061;-61
2022/11/03 11:06:26;;;;;;;7.88;1.45;;;12.10;99.90;;;;;;5055341;28;20037;-61
2022/11/03 11:08:56;;;;;;;5.28;1.35;;;12.10;99.90;;;;;;5055560;28;20128;-60
2022/11/03 11:11:25;;;;;;;4.00;1.40;;;12.10;99.90;;;;;;5055472;28;20116;-60
2022/11/03 11:13:52;;;;;;;6.18;1.63;;;12.10;99.90;;;;;;5055444;28;20051;-60
2022/11/03 11:16:19;;;;;;;5.50;1.45;;;12.10;99.90;;;;;;5055189;28;20529;-61
2022/11/03 11:18:45;;;;;;;4.05;1.48;;;12.10;99.90;;;;;;5055125;28;20433;-60
2022/11/03 11:21:12;;;;;;;5.43;1.45;;;12.10;99.90;;;;;;5055173;28;20098;-60
2022/11/03 11:23:40;;;;;;;3.78;1.30;;;12.10;99.90;;;;;;5053483;28;20049;-60
2022/11/03 11:26:07;;;;;;;5.28;1.38;;;12.10;99.90;;;;;;5055179;28;20044;-62
2022/11/03 11:28:34;;;;;;;5.88;2.28;;;12.20;99.90;;;;;;5055130;28;20469;-60
2022/11/03 11:31:01;;;;;;;3.28;1.48;;;12.20;99.90;;;;;;5053846;28;20064;-61
2022/11/03 11:33:28;;;;;;;4.07;1.48;;;12.20;99.90;;;;;;5054757;28;20080;-61
2022/11/03 11:35:55;;;;;;;4.10;1.70;;;12.30;99.90;;;;;;5054842;28;20476;-61
2022/11/03 11:38:28;;;;;;;5.53;1.70;;;12.30;99.90;;;;;;5054648;28;20051;-61
2022/11/03 11:40:54;;;;;;;5.85;1.60;;;12.30;99.90;;;;;;5054453;28;20516;-61
2022/11/03 11:43:21;;;;;;;4.82;1.85;;;12.30;99.90;;;;;;5054201;28;20044;-61
2022/11/03 11:45:48;;;;;;;2.97;1.40;;;12.30;99.90;;;;;;5054253;28;20551;-60
2022/11/03 11:48:14;;;;;;;4.18;1.80;;;12.30;99.90;;;;;;5054078;28;20043;-61
2022/11/03 11:50:44;;;;;;;5.30;1.08;;;12.40;99.90;;;;;;5054428;28;20379;-61
2022/11/03 11:53:11;;;;;;;4.32;1.33;;;12.40;99.90;;;;;;5053820;28;20103;-61
2022/11/03 11:55:38;;;;;;;4.47;1.45;;;12.40;99.90;;;;;;5054164;28;20473;-61
2022/11/03 11:58:05;;;;;;;3.05;1.70;;;12.30;99.90;;;;;;5054291;28;20500;-61
2022/11/03 12:00:31;;;;;;;4.05;2.05;;;12.30;99.90;;;;;;5054536;28;20102;-61
2022/11/03 12:02:58;;;;;;;5.45;2.17;;;12.30;99.90;;;;;;5054524;28;20094;-61
2022/11/03 12:05:26;;;;;;;5.70;2.40;;;12.30;99.90;;;;;;5053897;28;20144;-61
2022/11/03 12:07:53;;;;;;;4.90;2.25;;;12.30;99.90;;;;;;5052753;28;20072;-62
2022/11/03 12:10:21;;;;;;;6.88;2.58;;;12.40;99.90;;;;;;5053809;28;20072;-61
2022/11/03 12:12:48;;;;;;;5.47;2.30;;;12.40;99.90;;;;;;5053835;28;20082;-61
2022/11/03 12:15:15;;;;;;;5.07;2.17;;;12.40;99.90;;;;;;5053419;28;20622;-61
2022/11/03 12:17:41;;;;;;;5.03;2.03;;;12.50;99.90;;;;;;5053501;28;20049;-62
2022/11/03 12:20:08;;;;;;;3.97;2.20;;;12.50;99.90;;;;;;5053580;28;20083;-61
2022/11/03 12:22:35;;;;;;;5.93;2.45;;;12.50;99.90;;;;;;5053794;28;20436;-61
2022/11/03 12:25:03;;;;;;;3.90;1.80;;;12.60;99.90;;;;;;5053419;28;20041;-61
2022/11/03 12:27:30;;;;;;;4.78;1.52;;;12.60;99.90;;;;;;5053508;28;20079;-61
2022/11/03 12:29:58;;;;;;;4.18;1.50;;;12.60;99.90;;;;;;5054020;28;20081;-62
2022/11/03 12:32:24;;;;;;;3.20;1.60;;;12.60;99.90;;;;;;5054197;28;20052;-62
2022/11/03 12:35:00;;;;;;;2.50;1.40;;;12.70;99.90;;;;;;5053671;28;20049;-62
2022/11/03 12:37:27;;;;;;;3.45;1.52;;;12.70;99.90;;;;;;5053802;28;20049;-62
2022/11/03 12:39:53;;;;;;;8.57;1.95;;;12.70;99.90;;;;;;5053678;28;20056;-61
2022/11/03 12:42:21;;;;;;;4.15;1.15;;;12.70;99.90;;;;;;5053795;28;20045;-61
2022/11/03 12:44:48;;;;;;;5.07;1.33;;;12.70;99.90;;;;;;5052245;28;20128;-61
2022/11/03 12:47:14;;;;;;;2.65;1.08;;;12.70;99.90;;;;;;5053302;28;20091;-62
2022/11/03 12:49:41;;;;;;;4.57;1.38;;;12.70;99.90;;;;;;5053483;28;20099;-61
2022/11/03 12:52:09;;;;;;;6.10;2.67;;;12.70;99.90;;;;;;5053390;28;20080;-61
2022/11/03 12:54:36;;;;;;;3.78;1.75;;;12.70;99.90;;;;;;5053589;28;20053;-61
2022/11/03 12:57:02;;;;;;;8.80;2.03;;;12.70;99.90;;;;;;5052758;28;20068;-62
2022/11/03 12:59:29;;;;;;;5.32;2.67;;;12.70;99.90;;;;;;5053834;28;20480;-61
2022/11/03 13:01:56;;;;;;;9.07;2.22;;;12.70;99.90;;;;;;5056742;28;20064;-61